createdAt,value
2023-01-25T00:01:33.603Z,2.43
2023-01-25T00:04:00.735Z,3.33
2023-01-25T00:06:27.834Z,3.53
2023-01-25T00:08:54.903Z,4.55
2023-01-25T00:11:22.014Z,4.32
2023-01-25T00:13:49.246Z,5.22
2023-01-25T00:16:16.328Z,5.55
2023-01-25T00:18:43.402Z,9.85
2023-01-25T00:21:22.863Z,7.18
2023-01-25T00:23:50.706Z,6.80
2023-01-25T00:26:18.624Z,3.88
2023-01-25T00:28:50.916Z,4.47
2023-01-25T00:31:42.728Z,3.80
2023-01-25T00:34:25.233Z,5.63
2023-01-25T00:37:01.941Z,2.45
2023-01-25T00:39:29.552Z,2.15
2023-01-25T00:41:56.610Z,3.00
2023-01-25T00:44:23.695Z,1.90
2023-01-25T00:46:50.756Z,2.93
2023-01-25T00:49:27.096Z,2.30
2023-01-25T00:51:55.820Z,2.28
2023-01-25T00:54:22.995Z,2.10
2023-01-25T00:56:54.987Z,2.72
2023-01-25T00:59:23.483Z,1.90
2023-01-25T01:01:51.723Z,1.70
2023-01-25T01:04:20.399Z,3.50
2023-01-25T01:06:47.529Z,2.42
2023-01-25T01:09:17.684Z,1.88
2023-01-25T01:11:44.968Z,1.80
2023-01-25T01:14:12.610Z,5.05
2023-01-25T01:16:39.752Z,3.43
2023-01-25T01:19:06.876Z,4.47
2023-01-25T01:21:33.948Z,1.73
2023-01-25T01:24:01.170Z,3.13
2023-01-25T01:26:28.332Z,2.25
2023-01-25T01:28:55.468Z,2.85
2023-01-25T01:31:23.967Z,4.18
2023-01-25T01:33:52.863Z,5.45
2023-01-25T01:36:22.295Z,5.55
2023-01-25T01:38:49.737Z,12.35
2023-01-25T01:41:18.398Z,3.23
2023-01-25T01:43:45.992Z,3.55
2023-01-25T01:46:19.898Z,3.58
2023-01-25T01:49:04.294Z,3.95
2023-01-25T01:51:40.263Z,5.20
2023-01-25T01:54:16.148Z,2.60
2023-01-25T01:56:51.960Z,3.40
2023-01-25T01:59:20.710Z,3.55
2023-01-25T02:01:47.928Z,3.33
2023-01-25T02:04:18.333Z,3.65
2023-01-25T02:07:07.896Z,3.10
2023-01-25T02:09:36.609Z,2.03
2023-01-25T02:12:06.049Z,1.48
2023-01-25T02:14:34.488Z,3.50
2023-01-25T02:17:02.915Z,3.42
2023-01-25T02:19:53.994Z,10.47
2023-01-25T02:22:33.532Z,2.40
2023-01-25T02:25:12.043Z,6.10
2023-01-25T02:27:45.381Z,3.40
2023-01-25T02:30:12.762Z,5.82
2023-01-25T02:32:39.834Z,4.88
2023-01-25T02:35:08.066Z,4.72
2023-01-25T02:37:38.397Z,5.30
2023-01-25T02:40:05.956Z,6.97
2023-01-25T02:42:35.456Z,6.83
2023-01-25T02:45:05.100Z,3.38
2023-01-25T02:47:32.325Z,2.97
2023-01-25T02:49:59.390Z,3.80
2023-01-25T02:52:26.481Z,3.17
2023-01-25T02:54:53.539Z,7.20
2023-01-25T02:57:23.098Z,3.13
2023-01-25T02:59:50.260Z,3.55
2023-01-25T03:02:17.362Z,3.47
2023-01-25T03:04:44.421Z,2.90
2023-01-25T03:07:11.467Z,2.10
2023-01-25T03:09:38.557Z,1.58
2023-01-25T03:12:06.002Z,2.08
2023-01-25T03:14:33.147Z,1.65
2023-01-25T03:17:00.215Z,2.50
2023-01-25T03:19:27.983Z,1.40
2023-01-25T03:21:55.068Z,1.95
2023-01-25T03:24:22.178Z,2.67
2023-01-25T03:27:08.047Z,2.90
2023-01-25T03:29:35.111Z,1.70
2023-01-25T03:32:02.292Z,3.20
2023-01-25T03:34:29.435Z,3.10
2023-01-25T03:36:56.649Z,2.85
2023-01-25T03:39:23.749Z,2.28
2023-01-25T03:41:50.812Z,1.65
2023-01-25T03:44:17.860Z,2.20
2023-01-25T03:46:45.005Z,9.95
2023-01-25T03:49:12.459Z,4.90
2023-01-25T03:51:39.606Z,6.38
2023-01-25T03:54:08.215Z,4.85
2023-01-25T03:56:38.206Z,4.75
2023-01-25T03:59:05.588Z,3.77
2023-01-25T04:01:32.710Z,5.53
2023-01-25T04:03:59.808Z,7.07
2023-01-25T04:06:27.082Z,6.13
2023-01-25T04:08:54.180Z,2.50
2023-01-25T04:11:21.272Z,3.53
2023-01-25T04:13:48.333Z,3.53
2023-01-25T04:16:15.445Z,3.90
2023-01-25T04:18:42.521Z,2.43
2023-01-25T04:21:09.563Z,2.72
2023-01-25T04:23:36.637Z,2.92
2023-01-25T04:26:06.494Z,1.52
2023-01-25T04:28:35.369Z,2.80
2023-01-25T04:31:03.632Z,3.55
2023-01-25T04:33:30.850Z,1.42
2023-01-25T04:35:58.070Z,2.17
2023-01-25T04:38:25.656Z,3.35
2023-01-25T04:40:52.742Z,2.07
2023-01-25T04:43:21.329Z,2.50
2023-01-25T04:45:48.536Z,1.90
2023-01-25T04:48:15.757Z,2.35
2023-01-25T04:50:43.518Z,1.73
2023-01-25T04:53:12.360Z,1.90
2023-01-25T04:55:39.754Z,2.25
2023-01-25T04:58:06.934Z,1.88
2023-01-25T05:00:34.219Z,4.63
2023-01-25T05:03:01.277Z,1.70
2023-01-25T05:05:28.342Z,2.72
2023-01-25T05:07:55.418Z,3.10
2023-01-25T05:10:22.530Z,4.05
2023-01-25T05:12:49.626Z,3.17
2023-01-25T05:15:16.692Z,2.45
2023-01-25T05:17:43.780Z,6.28
2023-01-25T05:20:11.509Z,4.03
2023-01-25T05:22:38.560Z,7.90
2023-01-25T05:25:25.960Z,5.03
2023-01-25T05:27:53.029Z,4.85
2023-01-25T05:30:20.195Z,5.13
2023-01-25T05:32:50.025Z,6.50
2023-01-25T05:35:17.242Z,6.93
2023-01-25T05:37:44.297Z,5.60
2023-01-25T05:40:11.865Z,9.98
2023-01-25T05:42:39.114Z,8.00
2023-01-25T05:45:07.543Z,4.15
2023-01-25T05:47:35.003Z,6.80
2023-01-25T05:50:02.129Z,3.53
2023-01-25T05:52:29.204Z,5.00
2023-01-25T05:54:56.295Z,5.68
2023-01-25T05:57:23.360Z,4.43
2023-01-25T05:59:50.420Z,3.90
2023-01-25T06:02:17.553Z,3.95
2023-01-25T06:04:44.688Z,4.47
2023-01-25T06:07:11.832Z,3.20
2023-01-25T06:09:38.967Z,2.97
2023-01-25T06:12:06.700Z,2.22
2023-01-25T06:14:33.788Z,1.70
2023-01-25T06:17:01.085Z,2.13
2023-01-25T06:19:28.353Z,3.40
2023-01-25T06:21:55.411Z,11.95
2023-01-25T06:24:22.538Z,5.05
2023-01-25T06:26:49.667Z,6.57
2023-01-25T06:29:16.744Z,4.22
2023-01-25T06:31:43.949Z,3.10
2023-01-25T06:34:11.086Z,2.05
2023-01-25T06:36:38.208Z,2.33
2023-01-25T06:39:05.367Z,6.57
2023-01-25T06:41:32.422Z,3.90
2023-01-25T06:43:59.578Z,5.90
2023-01-25T06:46:26.942Z,7.80
2023-01-25T06:48:54.047Z,4.40
2023-01-25T06:51:21.156Z,4.40
2023-01-25T06:53:48.278Z,5.43
2023-01-25T06:56:19.344Z,4.75
2023-01-25T06:58:47.128Z,6.43
2023-01-25T07:01:16.180Z,5.53
2023-01-25T07:03:43.359Z,4.15
2023-01-25T07:06:11.320Z,6.65
2023-01-25T07:08:39.640Z,9.23
2023-01-25T07:11:09.470Z,9.30
2023-01-25T07:13:36.635Z,7.03
2023-01-25T07:16:06.055Z,6.07
2023-01-25T07:18:33.281Z,6.18
2023-01-25T07:21:05.791Z,6.27
2023-01-25T07:23:33.967Z,23.77
2023-01-25T07:26:01.710Z,13.88
2023-01-25T07:28:29.106Z,10.07
2023-01-25T07:30:56.963Z,11.43
2023-01-25T07:33:24.115Z,20.13
2023-01-25T07:35:51.285Z,16.02
2023-01-25T07:38:18.325Z,13.90
2023-01-25T07:40:53.099Z,12.48
2023-01-25T07:43:20.682Z,11.15
2023-01-25T07:45:50.709Z,9.25
2023-01-25T07:48:19.370Z,7.15
2023-01-25T07:50:49.578Z,8.30
2023-01-25T07:53:17.254Z,10.03
2023-01-25T07:55:44.323Z,8.05
2023-01-25T07:58:12.027Z,7.40
2023-01-25T08:00:40.262Z,8.15
2023-01-25T08:03:07.991Z,5.95
2023-01-25T08:05:35.096Z,6.72
2023-01-25T08:08:02.226Z,5.90
2023-01-25T08:10:29.379Z,4.45
2023-01-25T08:12:56.501Z,8.32
2023-01-25T08:15:23.562Z,4.68
2023-01-25T08:17:50.674Z,5.43
2023-01-25T08:20:17.960Z,8.32
2023-01-25T08:22:45.036Z,7.53
2023-01-25T08:25:12.101Z,7.72
2023-01-25T08:27:39.167Z,4.57
2023-01-25T08:30:06.710Z,5.10
2023-01-25T08:32:37.253Z,2.90
2023-01-25T08:35:05.803Z,7.20
2023-01-25T08:37:32.858Z,6.03
2023-01-25T08:40:00.315Z,5.20
2023-01-25T08:42:27.454Z,3.15
2023-01-25T08:44:54.547Z,4.40
2023-01-25T08:47:21.607Z,4.68
2023-01-25T08:49:49.012Z,8.15
2023-01-25T08:52:16.174Z,5.37
2023-01-25T08:54:44.244Z,6.93
2023-01-25T08:57:11.383Z,6.53
2023-01-25T08:59:38.512Z,8.13
2023-01-25T09:02:05.641Z,4.25
2023-01-25T09:04:32.936Z,2.55
2023-01-25T09:07:00.184Z,2.88
2023-01-25T09:09:27.424Z,3.13
2023-01-25T09:11:54.577Z,2.25
2023-01-25T09:14:21.756Z,3.75
2023-01-25T09:16:49.440Z,3.03
2023-01-25T09:19:16.519Z,4.50
2023-01-25T09:21:43.651Z,3.78
2023-01-25T09:24:10.800Z,4.20
2023-01-25T09:26:40.868Z,5.68
2023-01-25T09:29:10.785Z,21.20
2023-01-25T09:31:40.384Z,6.28
2023-01-25T09:34:08.526Z,9.60
2023-01-25T09:36:36.407Z,7.78
2023-01-25T09:39:03.748Z,6.70
2023-01-25T09:42:15.032Z,8.52
2023-01-25T09:44:57.372Z,17.30
2023-01-25T09:47:48.769Z,11.57
2023-01-25T09:50:40.205Z,15.23
2023-01-25T09:53:21.328Z,18.80
2023-01-25T09:56:08.560Z,5.80
2023-01-25T09:58:40.173Z,5.85
2023-01-25T10:01:21.774Z,5.75
2023-01-25T10:04:10.664Z,8.98
2023-01-25T10:06:46.126Z,7.15
2023-01-25T10:09:54.981Z,7.57
2023-01-25T10:12:24.141Z,19.40
2023-01-25T10:14:52.493Z,3.92
2023-01-25T10:17:34.840Z,11.10
2023-01-25T10:20:32.257Z,8.52
2023-01-25T10:23:17.638Z,5.03
2023-01-25T10:25:49.242Z,8.55
2023-01-25T10:28:59.085Z,6.10
2023-01-25T10:31:53.255Z,8.33
2023-01-25T10:34:28.977Z,3.88
2023-01-25T10:37:09.296Z,4.80
2023-01-25T10:39:42.106Z,5.25
2023-01-25T10:42:13.987Z,4.80
2023-01-25T10:44:41.029Z,5.00
2023-01-25T10:47:29.202Z,5.30
2023-01-25T10:49:58.090Z,11.18
2023-01-25T10:52:30.757Z,7.17
2023-01-25T10:55:18.678Z,9.73
2023-01-25T10:57:51.451Z,8.38
2023-01-25T11:00:31.746Z,8.82
2023-01-25T11:02:59.213Z,2.00
2023-01-25T11:05:26.607Z,7.63
2023-01-25T11:07:54.334Z,3.88
2023-01-25T11:10:42.307Z,1.92
2023-01-25T11:13:15.399Z,9.48
2023-01-25T11:15:44.763Z,4.70
2023-01-25T11:18:25.646Z,5.57
2023-01-25T11:21:11.451Z,4.95
2023-01-25T11:23:38.818Z,5.22
2023-01-25T11:26:14.019Z,1.40
2023-01-25T11:28:42.139Z,4.77
2023-01-25T11:31:14.163Z,2.50
2023-01-25T11:33:42.358Z,2.30
2023-01-25T11:36:28.257Z,3.40
2023-01-25T11:39:17.831Z,1.38
2023-01-25T11:41:57.038Z,1.55
2023-01-25T11:44:45.882Z,1.30
2023-01-25T11:47:23.245Z,1.15
2023-01-25T11:50:11.893Z,1.95
2023-01-25T11:53:16.951Z,1.00
2023-01-25T11:56:02.012Z,1.10
2023-01-25T11:58:53.685Z,1.73
2023-01-25T12:01:32.902Z,1.20
2023-01-25T12:04:28.141Z,1.15
2023-01-25T12:06:59.812Z,1.37
2023-01-25T12:09:51.828Z,1.30
2023-01-25T12:12:21.862Z,1.30
2023-01-25T12:14:48.872Z,1.40
2023-01-25T12:17:34.728Z,1.38
2023-01-25T12:20:31.582Z,3.28
2023-01-25T12:23:14.749Z,3.28
2023-01-25T12:26:12.383Z,4.20
2023-01-25T12:28:49.836Z,8.43
2023-01-25T12:31:28.454Z,9.32
2023-01-25T12:34:07.436Z,6.63
2023-01-25T12:36:40.571Z,5.53
2023-01-25T12:39:24.550Z,3.70
2023-01-25T12:42:06.249Z,3.40
2023-01-25T12:44:44.181Z,6.45
2023-01-25T12:47:27.950Z,6.50
2023-01-25T12:50:39.483Z,3.10
2023-01-25T12:53:29.593Z,6.43
2023-01-25T12:55:58.219Z,2.45
2023-01-25T12:58:46.613Z,6.20
2023-01-25T13:01:22.184Z,3.38
2023-01-25T13:04:23.158Z,2.53
2023-01-25T13:07:00.008Z,3.83
2023-01-25T13:09:39.050Z,1.90
2023-01-25T13:12:10.621Z,1.48
2023-01-25T13:14:39.385Z,7.93
2023-01-25T13:17:21.663Z,13.00
2023-01-25T13:19:50.570Z,5.63
2023-01-25T13:22:45.317Z,1.90
2023-01-25T13:25:18.068Z,30.27
2023-01-25T13:27:45.126Z,30.20
2023-01-25T13:30:32.675Z,31.52
2023-01-25T13:33:03.227Z,16.03
2023-01-25T13:35:41.102Z,21.50
2023-01-25T13:38:29.350Z,20.08
2023-01-25T13:41:17.007Z,13.95
2023-01-25T13:43:47.259Z,12.43
2023-01-25T13:46:17.679Z,10.20
2023-01-25T13:48:49.307Z,10.30
2023-01-25T13:51:18.333Z,7.97
2023-01-25T13:53:55.981Z,10.18
2023-01-25T13:56:32.699Z,8.27
2023-01-25T13:59:00.293Z,8.67
2023-01-25T14:01:30.481Z,11.50
2023-01-25T14:04:03.490Z,10.43
2023-01-25T14:06:37.858Z,10.65
2023-01-25T14:09:15.533Z,10.27
2023-01-25T14:11:54.059Z,16.92
2023-01-25T14:14:27.083Z,15.43
2023-01-25T14:17:15.924Z,12.82
2023-01-25T14:19:51.908Z,27.60
2023-01-25T14:22:30.310Z,26.65
2023-01-25T14:25:11.710Z,28.65
2023-01-25T14:27:51.167Z,29.83
2023-01-25T14:30:24.249Z,29.50
2023-01-25T14:33:03.147Z,23.52
2023-01-25T14:35:42.401Z,23.83
2023-01-25T14:38:37.080Z,29.15
2023-01-25T14:41:19.036Z,25.65
2023-01-25T14:43:49.104Z,23.88
2023-01-25T14:46:33.931Z,28.42
2023-01-25T14:49:16.113Z,24.73
2023-01-25T14:51:53.948Z,23.25
2023-01-25T14:54:25.425Z,23.13
2023-01-25T14:57:06.895Z,19.40
2023-01-25T14:59:37.897Z,23.75
2023-01-25T15:02:28.022Z,23.05
2023-01-25T15:05:02.856Z,18.58
2023-01-25T15:07:49.348Z,19.85
2023-01-25T15:10:19.775Z,15.75
2023-01-25T15:13:26.713Z,19.73
2023-01-25T15:15:58.525Z,18.77
2023-01-25T15:18:46.655Z,23.83
2023-01-25T15:21:29.448Z,24.37
2023-01-25T15:23:58.560Z,23.30
2023-01-25T15:26:30.724Z,24.80
2023-01-25T15:29:11.726Z,24.37
2023-01-25T15:31:39.379Z,24.40
2023-01-25T15:34:06.623Z,24.38
2023-01-25T15:36:33.828Z,19.98
2023-01-25T15:39:00.981Z,18.63
2023-01-25T15:41:28.026Z,16.23
2023-01-25T15:43:55.087Z,14.82
2023-01-25T15:46:26.315Z,15.90
2023-01-25T15:48:53.824Z,18.17
2023-01-25T15:51:21.326Z,14.43
2023-01-25T15:53:48.469Z,12.40
2023-01-25T15:56:20.962Z,15.57
2023-01-25T15:58:51.969Z,11.37
2023-01-25T16:01:19.135Z,10.20
2023-01-25T16:03:46.259Z,9.63
2023-01-25T16:06:35.522Z,11.30
2023-01-25T16:09:30.789Z,12.55
2023-01-25T16:12:00.407Z,10.25
2023-01-25T16:14:30.108Z,9.90
2023-01-25T16:17:04.019Z,5.13
2023-01-25T16:19:32.082Z,7.47
2023-01-25T16:21:59.606Z,6.65
2023-01-25T16:24:26.860Z,6.07
2023-01-25T16:26:56.232Z,5.53
2023-01-25T16:29:23.802Z,4.53
2023-01-25T16:31:52.460Z,4.05
2023-01-25T16:34:22.592Z,4.65
2023-01-25T16:36:50.890Z,6.18
2023-01-25T16:39:20.663Z,5.70
2023-01-25T16:41:48.582Z,4.05
2023-01-25T16:44:16.601Z,4.55
2023-01-25T16:46:43.939Z,3.53
2023-01-25T16:49:16.757Z,4.70
2023-01-25T16:51:45.364Z,4.20
2023-01-25T16:54:12.538Z,5.13
2023-01-25T16:56:39.830Z,4.68
2023-01-25T16:59:09.243Z,4.03
2023-01-25T17:01:38.456Z,3.50
2023-01-25T17:04:06.044Z,4.25
2023-01-25T17:06:36.501Z,3.92
2023-01-25T17:09:21.496Z,5.18
2023-01-25T17:11:49.930Z,10.60
2023-01-25T17:14:19.129Z,5.23
2023-01-25T17:16:48.263Z,9.27
2023-01-25T17:19:17.370Z,6.18
2023-01-25T17:21:45.486Z,6.15
2023-01-25T17:24:15.156Z,7.03
2023-01-25T17:26:42.329Z,6.90
2023-01-25T17:29:10.252Z,9.48
2023-01-25T17:31:38.033Z,5.03
2023-01-25T17:34:07.395Z,6.10
2023-01-25T17:36:34.640Z,5.13
2023-01-25T17:39:04.872Z,5.75
2023-01-25T17:41:32.348Z,4.93
2023-01-25T17:44:00.788Z,3.70
2023-01-25T17:46:32.275Z,3.67
2023-01-25T17:49:02.201Z,3.72
2023-01-25T17:51:30.182Z,8.88
2023-01-25T17:53:57.851Z,8.23
2023-01-25T17:56:25.718Z,10.77
2023-01-25T17:58:53.120Z,9.95
2023-01-25T18:01:23.078Z,13.98
2023-01-25T18:03:52.342Z,11.18
2023-01-25T18:06:24.867Z,9.30
2023-01-25T18:08:55.033Z,7.33
2023-01-25T18:11:25.294Z,12.45
2023-01-25T18:13:55.398Z,11.88
2023-01-25T18:16:24.385Z,8.07
2023-01-25T18:18:53.461Z,11.85
2023-01-25T18:21:26.259Z,6.53
2023-01-25T18:24:03.158Z,6.25
2023-01-25T18:26:36.741Z,7.07
2023-01-25T18:29:09.849Z,6.53
2023-01-25T18:31:37.235Z,4.27
2023-01-25T18:34:04.842Z,5.07
2023-01-25T18:36:31.944Z,5.40
2023-01-25T18:39:00.191Z,7.80
2023-01-25T18:41:27.346Z,7.72
2023-01-25T18:43:56.502Z,11.35
2023-01-25T18:46:23.605Z,9.48
2023-01-25T18:48:51.102Z,8.07
2023-01-25T18:51:18.321Z,7.78
2023-01-25T18:53:47.450Z,5.50
2023-01-25T18:56:20.523Z,5.47
2023-01-25T18:58:47.996Z,4.55
2023-01-25T19:01:17.651Z,5.60
2023-01-25T19:03:47.721Z,4.97
2023-01-25T19:06:15.271Z,5.45
2023-01-25T19:08:44.133Z,5.03
2023-01-25T19:11:15.895Z,6.82
2023-01-25T19:13:44.014Z,4.30
2023-01-25T19:16:16.922Z,4.43
2023-01-25T19:18:46.969Z,3.47
2023-01-25T19:21:19.152Z,4.37
2023-01-25T19:23:46.504Z,4.03
2023-01-25T19:26:16.200Z,3.00
2023-01-25T19:28:44.379Z,2.92
2023-01-25T19:31:17.239Z,2.47
2023-01-25T19:33:45.177Z,3.33
2023-01-25T19:36:19.010Z,2.75
2023-01-25T19:38:47.497Z,2.07
2023-01-25T19:41:18.226Z,2.03
2023-01-25T19:43:45.720Z,1.73
2023-01-25T19:46:18.318Z,3.38
2023-01-25T19:48:49.537Z,2.30
2023-01-25T19:51:18.624Z,4.10
2023-01-25T19:53:51.848Z,2.35
2023-01-25T19:56:18.971Z,5.63
2023-01-25T19:58:47.813Z,6.40
2023-01-25T20:01:29.093Z,4.25
2023-01-25T20:04:02.143Z,3.72
2023-01-25T20:06:29.292Z,5.63
2023-01-25T20:08:56.564Z,4.40
2023-01-25T20:11:26.170Z,8.95
2023-01-25T20:13:56.029Z,12.52
2023-01-25T20:16:24.043Z,5.07
2023-01-25T20:18:51.354Z,7.73
2023-01-25T20:21:22.777Z,4.60
2023-01-25T20:23:57.931Z,6.13
2023-01-25T20:26:28.127Z,4.72
2023-01-25T20:28:56.944Z,5.83
2023-01-25T20:31:30.265Z,6.10
2023-01-25T20:33:59.724Z,4.75
2023-01-25T20:36:30.611Z,7.22
2023-01-25T20:38:57.729Z,8.63
2023-01-25T20:41:25.110Z,6.35
2023-01-25T20:44:09.949Z,8.17
2023-01-25T20:46:38.704Z,5.38
2023-01-25T20:49:08.477Z,6.03
2023-01-25T20:51:36.412Z,4.07
2023-01-25T20:54:03.598Z,3.35
2023-01-25T20:56:31.668Z,3.00
2023-01-25T20:58:58.917Z,4.90
2023-01-25T21:01:29.613Z,3.67
2023-01-25T21:03:57.961Z,3.90
2023-01-25T21:06:28.132Z,4.40
2023-01-25T21:08:55.347Z,3.10
2023-01-25T21:11:25.968Z,3.80
2023-01-25T21:13:55.854Z,5.03
2023-01-25T21:16:23.465Z,5.60
2023-01-25T21:18:55.624Z,2.65
2023-01-25T21:21:27.585Z,4.35
2023-01-25T21:23:57.018Z,7.40
2023-01-25T21:26:26.359Z,2.67
2023-01-25T21:28:55.065Z,3.95
2023-01-25T21:31:25.393Z,7.00
2023-01-25T21:33:53.313Z,5.82
2023-01-25T21:36:20.973Z,4.65
2023-01-25T21:38:49.550Z,9.77
2023-01-25T21:41:24.029Z,5.93
2023-01-25T21:44:11.622Z,6.80
2023-01-25T21:46:38.946Z,7.78
2023-01-25T21:49:27.162Z,4.97
2023-01-25T21:51:56.614Z,5.83
2023-01-25T21:54:29.250Z,6.72
2023-01-25T21:56:58.335Z,5.73
2023-01-25T21:59:25.979Z,4.60
2023-01-25T22:01:54.195Z,8.98
2023-01-25T22:04:22.543Z,6.50
2023-01-25T22:06:52.057Z,3.33
2023-01-25T22:09:19.269Z,7.43
2023-01-25T22:11:46.657Z,7.73
2023-01-25T22:14:19.220Z,5.82
2023-01-25T22:16:46.583Z,7.07
2023-01-25T22:19:13.679Z,9.57
2023-01-25T22:21:40.890Z,6.78
2023-01-25T22:24:09.944Z,4.68
2023-01-25T22:26:46.047Z,7.20
2023-01-25T22:29:13.931Z,5.13
2023-01-25T22:31:41.460Z,8.50
2023-01-25T22:34:08.663Z,6.45
2023-01-25T22:36:35.764Z,8.20
2023-01-25T22:39:02.863Z,5.75
2023-01-25T22:41:32.290Z,7.00
2023-01-25T22:43:59.347Z,6.00
2023-01-25T22:46:28.699Z,5.20
2023-01-25T22:48:57.312Z,5.32
2023-01-25T22:51:29.450Z,3.25
2023-01-25T22:53:57.895Z,6.10
2023-01-25T22:56:31.580Z,5.15
2023-01-25T22:58:59.549Z,4.22
2023-01-25T23:01:32.198Z,5.45
2023-01-25T23:04:00.832Z,3.73
2023-01-25T23:06:31.244Z,4.88
2023-01-25T23:08:59.918Z,6.03
2023-01-25T23:11:38.115Z,2.90
2023-01-25T23:14:25.900Z,10.40
2023-01-25T23:17:13.477Z,9.20
2023-01-25T23:19:40.529Z,8.73
2023-01-25T23:22:07.610Z,10.85
2023-01-25T23:24:34.675Z,8.25
2023-01-25T23:27:01.802Z,8.88
2023-01-25T23:29:28.849Z,30.27
2023-01-25T23:31:55.955Z,15.10
2023-01-25T23:34:23.067Z,15.32
2023-01-25T23:36:50.113Z,17.70
2023-01-25T23:39:17.291Z,14.20
2023-01-25T23:41:44.452Z,16.30
2023-01-25T23:44:11.530Z,12.82
2023-01-25T23:46:38.741Z,13.07
2023-01-25T23:49:06.012Z,13.82
2023-01-25T23:51:33.110Z,10.32
2023-01-25T23:54:00.173Z,9.82
2023-01-25T23:56:27.318Z,10.85
2023-01-25T23:58:54.456Z,9.67
